LiveATC.Net - Listen to live air traffic control over the Internet!


ICAO: KJKA  IATA: JKA   Airport: Jack Edwards National Airport
City: Gulf Shores   State/Province: Alabama
Country: United States   Continent: North America
KJKA METAR Weather: KJKA 012356Z 00000KT 10SM BKN023 BKN032 OVC050 20/10 A3018
KJKA ADS-B Flight Tracking  (ADSBExchange)
KJKA Flight Activity (FlightAware)
KJKA Airport Info   (iFlightPlanner)
KJKA VFR Sectional Chart   (iFlightPlanner) 
KJKA IFR Low Altitude Chart   (iFlightPlanner) 
KJKA IFR High Altitude Chart   (iFlightPlanner) 

KJKA Twr/CTAF
Feed Status: DOWN
Last heard on: 2023-01-26 15:59:22 (6 days 9 hours 24 minutes ago)
Archive Access: KJKA Twr/CTAF
FacilityFrequency
Jack Edwards Tower/CTAF118.650

NOTICE

Unauthorized use prohibited. See LiveATC.net Terms of Service


Airport/ARTCC Code
Frequency Search
(e.g., 124.400, 128.75)
Site-wide search
 


Browse Feeds
Top 50 Feeds
HF Oceanic Feeds
Coverage Map
Bad Weather Areas

LiveATC FAQ
Offer LiveATC feed
Contact LiveATC.net
Press Inquiries

LiveATC on iPhone
LiveATC on Android

LiveATC Mobile
(Mobile browser)

ATC Audio Archives
Interesting Recordings

LiveATC Forums


Home Page
About LiveATC.net


Terms of Use
Privacy Policy

AIRMETs/SIGMETs

FAA Airport Status
NAS Status
Arrival Demand


Server Software By:
Icecast.org
Liquidsoap